Los Angeles, California
Current Conditions -  °F | °C
As of 3:47 PM on Monday 20 Oct 2014 (Local Time) from KCQT Reporting Station
Clear Clear  
Wind Chill: 24°   Ceiling: Unl
Heat Index: 24°   Visibility: 10mi
Dew Point: 16°   Wind: 6mph
Humidity: 60%   Direction: NA
Pressure: 29.87"   Gusts: NA
Location:  34.05°N, 118.24°W
Report Text: KCQT 202247Z AUTO VRB05KT 10SM CLR 24/16 A2987 RMK AO2 SLP111 T02390156
Loading
Personal Weather Stations






























Interactive Weather Map New forecast layout! Learn more

10-Day Weather Forecast

Advertisements
Track Severe Weather on mobile